Time;durP1;ratioP1;P1;durP2;ratioP2;P2;SDS_P1;SDS_P2;PMS_P1;PMS_P2;Temp;Humidity;BMP_temperature;BMP_pressure;BME280_temperature;BME280_humidity;BME280_pressure;Samples;Min_cycle;Max_cycle;Signal;HPM_P1;HPM_P2
2021/09/04 00:00:07;;;;;;;27.03;20.80;;;14.10;99.90;;;;;;5054326;28;20567;-78
2021/09/04 00:02:35;;;;;;;23.40;20.53;;;14.10;99.90;;;;;;5054467;28;20523;-78
2021/09/04 00:05:02;;;;;;;29.93;20.47;;;14.10;99.90;;;;;;5054139;28;20440;-78
2021/09/04 00:07:30;;;;;;;25.37;21.20;;;14.00;99.90;;;;;;5054451;28;20556;-78
2021/09/04 00:09:57;;;;;;;24.87;20.07;;;14.00;99.90;;;;;;5054456;28;20452;-78
2021/09/04 00:12:25;;;;;;;23.23;19.20;;;14.00;99.90;;;;;;5054287;28;20878;-78
2021/09/04 00:14:52;;;;;;;24.67;20.07;;;14.00;99.90;;;;;;5054187;28;20864;-78
2021/09/04 00:17:19;;;;;;;25.53;20.57;;;13.90;99.90;;;;;;5053874;28;20535;-78
2021/09/04 00:19:47;;;;;;;26.23;20.43;;;13.90;99.90;;;;;;5042992;28;20522;-78
2021/09/04 00:22:14;;;;;;;27.40;21.80;;;13.90;99.90;;;;;;5053507;28;20540;-78
2021/09/04 00:24:40;;;;;;;28.60;22.40;;;13.80;99.90;;;;;;5051911;28;20531;-77
2021/09/04 00:27:07;;;;;;;26.90;22.30;;;13.80;99.90;;;;;;5053225;28;20536;-78
2021/09/04 00:29:34;;;;;;;22.93;20.40;;;13.80;99.90;;;;;;5052662;28;20456;-78
2021/09/04 00:32:00;;;;;;;29.23;22.27;;;13.80;99.90;;;;;;5053757;28;20547;-78
2021/09/04 00:34:27;;;;;;;26.00;21.70;;;13.80;99.90;;;;;;5054136;28;20527;-78
2021/09/04 00:36:55;;;;;;;29.53;24.37;;;13.80;99.90;;;;;;5054033;28;20518;-78
2021/09/04 00:39:21;;;;;;;29.57;23.47;;;13.70;99.90;;;;;;5052496;28;20512;-78
2021/09/04 00:41:48;;;;;;;25.57;21.93;;;13.70;99.90;;;;;;5053944;28;20475;-78
2021/09/04 00:44:16;;;;;;;24.77;21.77;;;13.70;99.90;;;;;;5053439;28;21050;-78
2021/09/04 00:46:43;;;;;;;27.60;23.70;;;13.70;99.90;;;;;;5053674;28;20451;-78
2021/09/04 00:49:10;;;;;;;26.33;22.63;;;13.70;99.90;;;;;;5053531;28;20535;-78
2021/09/04 00:51:36;;;;;;;28.30;22.43;;;13.70;99.90;;;;;;5053627;28;20522;-78
2021/09/04 00:54:06;;;;;;;29.30;22.80;;;13.70;99.90;;;;;;5053228;28;20539;-78
2021/09/04 00:56:33;;;;;;;27.70;22.83;;;13.60;99.90;;;;;;5053437;28;20532;-78
2021/09/04 00:59:05;;;;;;;25.27;22.00;;;13.60;99.90;;;;;;5053225;28;20562;-77
2021/09/04 01:01:32;;;;;;;25.80;22.30;;;13.60;99.90;;;;;;5053554;28;20548;-77
2021/09/04 01:03:58;;;;;;;27.20;21.00;;;13.60;99.90;;;;;;5053521;28;20882;-78
2021/09/04 01:06:25;;;;;;;27.30;22.73;;;13.50;99.90;;;;;;5053494;28;20531;-77
2021/09/04 01:08:51;;;;;;;26.70;23.37;;;13.50;99.90;;;;;;5053270;28;20746;-78
2021/09/04 01:11:19;;;;;;;26.27;23.50;;;13.50;99.90;;;;;;5036850;28;21034;-79
2021/09/04 01:13:46;;;;;;;29.53;23.30;;;13.50;99.90;;;;;;5053018;28;20535;-79
2021/09/04 01:16:13;;;;;;;29.13;22.60;;;13.50;99.90;;;;;;5053030;28;20552;-79
2021/09/04 01:18:39;;;;;;;29.57;23.50;;;13.40;99.90;;;;;;5044105;28;20857;-79
2021/09/04 01:21:08;;;;;;;25.13;22.47;;;13.40;99.90;;;;;;5051403;28;20539;-79
2021/09/04 01:23:35;;;;;;;25.53;22.23;;;13.50;99.90;;;;;;5053083;28;20480;-79
2021/09/04 01:26:04;;;;;;;25.00;22.00;;;13.40;99.90;;;;;;5052669;28;20544;-79
2021/09/04 01:28:30;;;;;;;28.07;21.90;;;13.40;99.90;;;;;;5052317;28;20459;-78
2021/09/04 01:30:57;;;;;;;25.07;22.07;;;13.40;99.90;;;;;;5052967;28;20547;-78
2021/09/04 01:33:24;;;;;;;25.53;22.63;;;13.40;99.90;;;;;;5053001;28;20523;-78
2021/09/04 01:35:50;;;;;;;30.27;22.07;;;13.40;99.90;;;;;;5052834;28;20547;-78
2021/09/04 01:38:17;;;;;;;23.70;21.20;;;13.40;99.90;;;;;;5052756;28;20873;-78
2021/09/04 01:40:44;;;;;;;24.83;21.43;;;13.30;99.90;;;;;;5052592;28;20476;-79
2021/09/04 01:43:11;;;;;;;26.57;21.90;;;13.30;99.90;;;;;;5052631;28;21033;-78
2021/09/04 01:45:38;;;;;;;25.13;22.23;;;13.30;99.90;;;;;;5052911;28;20563;-78
2021/09/04 01:48:06;;;;;;;28.50;22.93;;;13.20;99.90;;;;;;5052612;28;20436;-78
2021/09/04 01:50:33;;;;;;;24.47;20.63;;;13.20;99.90;;;;;;5052613;28;21018;-78
2021/09/04 01:53:00;;;;;;;29.60;21.90;;;13.20;99.90;;;;;;5052688;28;21066;-78
2021/09/04 01:55:26;;;;;;;26.40;21.27;;;13.10;99.90;;;;;;5052289;28;20539;-78
2021/09/04 01:57:53;;;;;;;27.07;20.90;;;13.10;99.90;;;;;;5052698;28;20548;-78
2021/09/04 02:00:21;;;;;;;23.80;21.17;;;13.10;99.90;;;;;;5052350;28;20523;-78
2021/09/04 02:02:47;;;;;;;23.17;19.97;;;13.10;99.90;;;;;;5052637;28;20504;-78
2021/09/04 02:05:14;;;;;;;26.93;21.30;;;13.10;99.90;;;;;;5052266;28;20531;-77
2021/09/04 02:07:40;;;;;;;25.37;22.67;;;13.10;99.90;;;;;;5052388;28;20535;-78
2021/09/04 02:10:09;;;;;;;25.00;20.70;;;13.10;99.90;;;;;;5052243;28;20476;-78
2021/09/04 02:12:35;;;;;;;24.30;20.90;;;13.10;99.90;;;;;;5052572;28;20483;-78
2021/09/04 02:15:02;;;;;;;28.17;21.90;;;13.00;99.90;;;;;;5052320;28;20444;-78
2021/09/04 02:17:30;;;;;;;24.10;21.57;;;13.00;99.90;;;;;;5052429;28;20540;-78
2021/09/04 02:19:57;;;;;;;27.70;21.40;;;12.90;99.90;;;;;;5041364;28;20575;-78
2021/09/04 02:22:23;;;;;;;25.77;21.90;;;12.90;99.90;;;;;;5052445;28;20535;-78
2021/09/04 02:24:50;;;;;;;26.33;21.20;;;12.90;99.90;;;;;;5052170;28;20499;-78
2021/09/04 02:27:16;;;;;;;28.13;20.33;;;12.90;99.90;;;;;;5052354;28;20444;-78
2021/09/04 02:29:43;;;;;;;24.17;21.30;;;12.80;99.90;;;;;;5051981;28;20955;-78
2021/09/04 02:32:10;;;;;;;26.87;20.83;;;12.90;99.90;;;;;;5052317;28;20540;-78
2021/09/04 02:34:40;;;;;;;29.83;23.50;;;12.80;99.90;;;;;;5052345;28;21007;-78
2021/09/04 02:37:06;;;;;;;25.07;21.87;;;12.80;99.90;;;;;;5052141;28;20444;-78
2021/09/04 02:39:33;;;;;;;25.13;21.97;;;12.80;99.90;;;;;;5054501;28;21025;-78
2021/09/04 02:41:59;;;;;;;27.73;22.97;;;12.80;99.90;;;;;;5056120;28;20538;-78
2021/09/04 02:44:26;;;;;;;27.43;23.00;;;12.80;99.90;;;;;;5055977;28;20642;-78
2021/09/04 02:46:52;;;;;;;27.07;23.20;;;12.80;99.90;;;;;;5055794;28;20547;-78
2021/09/04 02:49:19;;;;;;;26.93;23.90;;;12.80;99.90;;;;;;5055904;28;20488;-78
2021/09/04 02:51:47;;;;;;;26.43;22.57;;;12.80;99.90;;;;;;5055756;28;20535;-78
2021/09/04 02:54:13;;;;;;;28.77;23.60;;;12.80;99.90;;;;;;5055768;28;20539;-78
2021/09/04 02:56:40;;;;;;;29.87;24.37;;;12.80;99.90;;;;;;5055835;28;20551;-78
2021/09/04 02:59:06;;;;;;;26.10;22.60;;;12.80;99.90;;;;;;5055585;28;20531;-78
2021/09/04 03:01:33;;;;;;;28.03;22.70;;;12.80;99.90;;;;;;5053666;28;20544;-78
2021/09/04 03:03:59;;;;;;;34.60;23.50;;;12.80;99.90;;;;;;5055679;28;20531;-78
2021/09/04 03:06:26;;;;;;;28.80;22.83;;;12.80;99.90;;;;;;5055435;28;20535;-78
2021/09/04 03:08:54;;;;;;;28.70;23.70;;;12.80;99.90;;;;;;5055869;28;20539;-78
2021/09/04 03:11:21;;;;;;;30.20;24.57;;;12.80;99.90;;;;;;5055503;28;20765;-78
2021/09/04 03:13:48;;;;;;;26.83;23.00;;;12.80;99.90;;;;;;5055575;28;20527;-77
2021/09/04 03:16:14;;;;;;;32.63;24.20;;;12.80;99.90;;;;;;5055347;28;20948;-77
2021/09/04 03:18:41;;;;;;;25.50;21.87;;;12.80;99.90;;;;;;5045884;28;20539;-78
2021/09/04 03:21:07;;;;;;;28.03;22.13;;;12.80;99.90;;;;;;5050420;28;20999;-78
2021/09/04 03:23:34;;;;;;;27.23;21.77;;;12.70;99.90;;;;;;5055451;28;20546;-78
2021/09/04 03:26:01;;;;;;;27.70;21.30;;;12.70;99.90;;;;;;5055212;28;20528;-79
2021/09/04 03:28:28;;;;;;;25.63;21.57;;;12.70;99.90;;;;;;5055254;28;20878;-79
2021/09/04 03:30:55;;;;;;;25.33;20.40;;;12.70;99.90;;;;;;5054969;28;20982;-79
2021/09/04 03:33:21;;;;;;;24.83;21.80;;;12.70;99.90;;;;;;5054916;28;20444;-80
2021/09/04 03:35:48;;;;;;;26.20;22.37;;;12.70;99.90;;;;;;5055124;28;20480;-80
2021/09/04 03:38:14;;;;;;;25.70;21.03;;;12.70;99.90;;;;;;5055091;28;20528;-79
2021/09/04 03:40:41;;;;;;;28.40;22.60;;;12.70;99.90;;;;;;5054925;28;20575;-78
2021/09/04 03:43:09;;;;;;;29.63;25.10;;;12.70;99.90;;;;;;5054963;28;20476;-78
2021/09/04 03:45:36;;;;;;;30.10;23.13;;;12.60;99.90;;;;;;5054507;28;20567;-77
2021/09/04 03:48:03;;;;;;;29.00;22.90;;;12.60;99.90;;;;;;5054734;28;20535;-77
2021/09/04 03:50:29;;;;;;;33.37;23.77;;;12.60;99.90;;;;;;5054093;28;20898;-78
2021/09/04 03:52:56;;;;;;;30.53;25.83;;;12.60;99.90;;;;;;5054781;28;20536;-78
2021/09/04 03:55:22;;;;;;;31.30;24.80;;;12.50;99.90;;;;;;5054732;28;20480;-77
2021/09/04 03:57:49;;;;;;;34.03;25.33;;;12.50;99.90;;;;;;5054662;28;20535;-77
2021/09/04 04:00:17;;;;;;;30.30;24.57;;;12.50;99.90;;;;;;5054560;28;20885;-77
2021/09/04 04:02:45;;;;;;;28.00;22.33;;;12.50;99.90;;;;;;5054400;28;20880;-77
2021/09/04 04:05:12;;;;;;;30.43;24.10;;;12.50;99.90;;;;;;5054823;28;20449;-77
2021/09/04 04:07:39;;;;;;;30.40;24.47;;;12.50;99.90;;;;;;5054482;28;20575;-78
2021/09/04 04:10:06;;;;;;;28.40;23.17;;;12.50;99.90;;;;;;5054583;28;21126;-78
2021/09/04 04:12:34;;;;;;;32.30;25.30;;;12.50;99.90;;;;;;5054154;28;20952;-78
2021/09/04 04:15:00;;;;;;;29.07;23.67;;;12.50;99.90;;;;;;5054058;28;20452;-79
2021/09/04 04:17:30;;;;;;;27.30;22.57;;;12.50;99.90;;;;;;5054006;28;21030;-78
2021/09/04 04:19:57;;;;;;;29.27;23.50;;;12.50;99.90;;;;;;5039715;28;20487;-78
2021/09/04 04:22:23;;;;;;;29.53;23.53;;;12.50;99.90;;;;;;5054137;28;20532;-78
2021/09/04 04:24:49;;;;;;;26.83;21.93;;;12.50;99.90;;;;;;5054182;28;20544;-78
2021/09/04 04:27:16;;;;;;;24.70;20.83;;;12.50;99.90;;;;;;5054132;28;21038;-78
2021/09/04 04:29:42;;;;;;;22.70;20.30;;;12.50;99.90;;;;;;5053893;28;20535;-78
2021/09/04 04:32:09;;;;;;;25.33;20.97;;;12.50;99.90;;;;;;5054150;28;20549;-79
2021/09/04 04:34:37;;;;;;;24.47;20.70;;;12.50;99.90;;;;;;5053995;28;20539;-78
2021/09/04 04:37:04;;;;;;;23.97;20.80;;;12.60;99.90;;;;;;5053978;28;20535;-79
2021/09/04 04:39:30;;;;;;;26.57;21.03;;;12.60;99.90;;;;;;5053777;28;20527;-78
2021/09/04 04:41:57;;;;;;;22.77;19.00;;;12.70;99.90;;;;;;5053551;28;20464;-79
2021/09/04 04:44:23;;;;;;;24.00;20.90;;;12.80;99.90;;;;;;5053566;28;20495;-79
2021/09/04 04:46:50;;;;;;;23.13;20.20;;;12.80;99.90;;;;;;5053895;28;20539;-79
2021/09/04 04:49:16;;;;;;;23.57;21.00;;;12.90;99.90;;;;;;5053644;28;20524;-79
2021/09/04 04:51:44;;;;;;;24.00;20.10;;;13.00;99.90;;;;;;5053651;28;20480;-79
2021/09/04 04:54:11;;;;;;;25.13;20.50;;;13.10;99.90;;;;;;5053566;28;20440;-78
2021/09/04 04:56:37;;;;;;;24.77;19.77;;;13.20;99.90;;;;;;5053222;28;20479;-78
2021/09/04 04:59:06;;;;;;;24.63;18.70;;;13.30;99.90;;;;;;5053624;28;20575;-78
2021/09/04 05:01:32;;;;;;;26.37;19.60;;;13.40;99.90;;;;;;5052930;28;20476;-78
2021/09/04 05:03:59;;;;;;;26.87;20.60;;;13.50;99.90;;;;;;5052970;28;20540;-77
2021/09/04 05:06:25;;;;;;;28.43;21.30;;;13.60;99.90;;;;;;5053322;28;20536;-77
2021/09/04 05:08:53;;;;;;;27.87;22.20;;;13.80;99.90;;;;;;5053271;28;20480;-78
2021/09/04 05:11:20;;;;;;;26.57;20.47;;;13.80;99.90;;;;;;5053158;28;20539;-79
2021/09/04 05:13:46;;;;;;;28.87;21.23;;;13.90;99.90;;;;;;5053273;28;20531;-78
2021/09/04 05:16:14;;;;;;;30.07;21.60;;;14.00;99.90;;;;;;5053254;28;20536;-79
2021/09/04 05:18:41;;;;;;;33.20;23.03;;;14.10;99.90;;;;;;5043709;28;20537;-78
2021/09/04 05:21:07;;;;;;;31.30;21.73;;;14.20;99.90;;;;;;5048152;28;21073;-78
2021/09/04 05:23:34;;;;;;;28.70;21.30;;;14.30;99.90;;;;;;5052844;28;20540;-78
2021/09/04 05:26:02;;;;;;;36.00;23.93;;;14.50;99.90;;;;;;5052937;28;20548;-78
2021/09/04 05:28:28;;;;;;;35.13;23.73;;;14.60;99.90;;;;;;5052947;28;20479;-78
2021/09/04 05:30:55;;;;;;;35.70;24.70;;;14.70;99.90;;;;;;5053088;28;20862;-78
2021/09/04 05:33:21;;;;;;;30.93;24.07;;;14.90;99.90;;;;;;5052670;28;20528;-78
2021/09/04 05:35:48;;;;;;;36.57;23.87;;;15.00;99.90;;;;;;5052901;28;20488;-81
2021/09/04 05:38:14;;;;;;;36.87;23.10;;;15.10;99.90;;;;;;5052779;28;20494;-79
2021/09/04 05:40:41;;;;;;;35.17;23.37;;;15.20;99.90;;;;;;5052853;28;20785;-79
2021/09/04 05:43:09;;;;;;;32.30;23.60;;;15.30;99.90;;;;;;5052922;28;20480;-80
2021/09/04 05:45:35;;;;;;;32.87;23.03;;;15.30;99.90;;;;;;5052708;28;20564;-79
2021/09/04 05:48:02;;;;;;;33.70;22.20;;;15.30;99.90;;;;;;5053029;28;20555;-79
2021/09/04 05:50:28;;;;;;;31.53;21.60;;;15.40;99.90;;;;;;5052867;28;20546;-79
2021/09/04 05:52:55;;;;;;;32.47;23.93;;;15.40;99.90;;;;;;5052700;28;20527;-79
2021/09/04 05:55:22;;;;;;;37.17;25.50;;;15.50;99.90;;;;;;5052884;28;20800;-78
2021/09/04 05:57:48;;;;;;;31.47;22.80;;;15.50;99.90;;;;;;5052685;28;20531;-78
2021/09/04 06:00:17;;;;;;;29.03;20.70;;;15.50;99.90;;;;;;5052731;28;20535;-79
2021/09/04 06:02:43;;;;;;;30.87;22.93;;;15.60;99.90;;;;;;5052648;28;20472;-79
2021/09/04 06:05:11;;;;;;;29.53;21.60;;;15.60;99.90;;;;;;5052670;28;20444;-79
2021/09/04 06:07:37;;;;;;;30.60;22.57;;;15.70;99.90;;;;;;5052488;28;20878;-79
2021/09/04 06:10:04;;;;;;;29.17;21.47;;;15.70;99.90;;;;;;5052730;28;20854;-79
2021/09/04 06:12:31;;;;;;;27.27;21.50;;;15.80;99.90;;;;;;5052378;28;20484;-78
2021/09/04 06:14:57;;;;;;;30.17;22.67;;;15.90;99.90;;;;;;5055538;28;20531;-78
2021/09/04 06:17:26;;;;;;;29.60;22.23;;;15.90;99.90;;;;;;5056527;28;20543;-79
2021/09/04 06:19:52;;;;;;;27.97;21.43;;;16.00;99.90;;;;;;5041931;28;20536;-79
2021/09/04 06:22:19;;;;;;;26.43;20.17;;;16.10;99.90;;;;;;5056328;28;20566;-79
2021/09/04 06:24:45;;;;;;;28.00;21.13;;;16.10;99.90;;;;;;5056162;28;20480;-79
2021/09/04 06:27:12;;;;;;;24.27;19.67;;;16.20;99.90;;;;;;5056551;28;20535;-79
2021/09/04 06:29:39;;;;;;;23.33;20.00;;;16.20;99.90;;;;;;5056655;28;20535;-79
2021/09/04 06:32:06;;;;;;;27.33;21.30;;;16.30;99.90;;;;;;5056482;28;20551;-79
2021/09/04 06:34:34;;;;;;;24.73;19.50;;;16.40;99.90;;;;;;5056164;28;20854;-79
2021/09/04 06:37:00;;;;;;;22.20;18.10;;;16.50;99.90;;;;;;5056208;28;20994;-80
2021/09/04 06:39:27;;;;;;;25.70;18.97;;;16.60;99.90;;;;;;5056137;28;20475;-80
2021/09/04 06:41:53;;;;;;;26.93;20.87;;;16.60;99.90;;;;;;5056115;28;20571;-80
2021/09/04 06:44:20;;;;;;;21.30;17.93;;;16.60;99.90;;;;;;5056354;28;20635;-79
2021/09/04 06:46:46;;;;;;;21.30;17.73;;;16.60;99.90;;;;;;5056135;28;20543;-80
2021/09/04 06:49:13;;;;;;;20.67;16.57;;;16.60;99.90;;;;;;5055755;28;20550;-79
2021/09/04 06:51:40;;;;;;;19.80;16.70;;;16.70;99.90;;;;;;5056345;28;20539;-80
2021/09/04 06:54:07;;;;;;;20.87;16.80;;;16.70;99.90;;;;;;5056156;28;20539;-80
2021/09/04 06:56:33;;;;;;;20.20;16.13;;;16.80;99.90;;;;;;5055877;28;20558;-80
2021/09/04 06:59:00;;;;;;;20.90;17.10;;;16.90;99.90;;;;;;5055758;28;20843;-79
2021/09/04 07:01:27;;;;;;;21.40;16.80;;;16.90;99.90;;;;;;5055700;28;21065;-80
2021/09/04 07:03:53;;;;;;;18.07;15.77;;;16.90;99.90;;;;;;5055533;28;20543;-80
2021/09/04 07:06:20;;;;;;;20.47;15.87;;;17.00;99.90;;;;;;5055988;28;20872;-80
2021/09/04 07:08:47;;;;;;;21.57;16.37;;;17.00;99.90;;;;;;5055525;28;20480;-80
2021/09/04 07:11:14;;;;;;;21.40;16.90;;;17.00;99.90;;;;;;5055488;28;21009;-79
2021/09/04 07:13:41;;;;;;;21.93;16.23;;;17.00;99.90;;;;;;5055620;28;20523;-80
2021/09/04 07:16:07;;;;;;;17.90;14.37;;;17.20;99.90;;;;;;5053519;28;20491;-79
2021/09/04 07:18:34;;;;;;;17.40;14.63;;;17.20;99.90;;;;;;5047111;28;20590;-79
2021/09/04 07:21:00;;;;;;;20.20;15.10;;;17.30;99.90;;;;;;5050371;28;20924;-78
2021/09/04 07:23:27;;;;;;;16.57;13.43;;;17.40;99.90;;;;;;5055455;28;20518;-79
2021/09/04 07:25:55;;;;;;;20.07;15.27;;;17.50;99.90;;;;;;5054259;28;20610;-79
2021/09/04 07:28:21;;;;;;;19.10;15.70;;;17.60;99.90;;;;;;5055304;28;20502;-79
2021/09/04 07:30:48;;;;;;;16.90;14.03;;;17.60;99.90;;;;;;5055033;28;20480;-79
2021/09/04 07:33:15;;;;;;;15.53;12.80;;;17.70;99.90;;;;;;5049713;28;20464;-78
2021/09/04 07:35:41;;;;;;;18.93;15.40;;;17.80;99.90;;;;;;5054300;28;20501;-81
2021/09/04 07:38:11;;;;;;;18.33;13.67;;;17.90;99.90;;;;;;5053960;28;20535;-78
2021/09/04 07:40:38;;;;;;;19.00;16.17;;;17.90;99.90;;;;;;5051754;28;20536;-78
2021/09/04 07:43:07;;;;;;;17.20;15.27;;;18.00;99.90;;;;;;5054668;28;20535;-78
2021/09/04 07:45:34;;;;;;;17.70;14.47;;;18.10;99.90;;;;;;5037948;28;20479;-79
2021/09/04 07:48:01;;;;;;;19.87;15.57;;;18.20;99.90;;;;;;5054349;28;20564;-79
2021/09/04 07:50:27;;;;;;;18.13;14.20;;;18.20;99.90;;;;;;5054040;28;20535;-79
2021/09/04 07:52:54;;;;;;;16.67;14.40;;;18.30;99.90;;;;;;5054274;28;20491;-79
2021/09/04 07:55:21;;;;;;;17.70;14.17;;;18.50;99.90;;;;;;5054332;28;20449;-80
2021/09/04 07:57:47;;;;;;;19.70;15.43;;;18.60;99.90;;;;;;5049679;28;20535;-80
2021/09/04 08:00:16;;;;;;;18.90;15.10;;;18.70;99.90;;;;;;5053679;28;20522;-80
2021/09/04 08:02:43;;;;;;;17.70;13.80;;;18.80;99.90;;;;;;5051595;28;20575;-80
2021/09/04 08:05:11;;;;;;;19.07;14.80;;;18.90;99.90;;;;;;5053496;28;20452;-80
2021/09/04 08:07:38;;;;;;;20.00;15.33;;;18.90;99.90;;;;;;5042267;28;20543;-80
2021/09/04 08:10:08;;;;;;;19.90;16.70;;;18.90;99.90;;;;;;5053809;28;20958;-80
2021/09/04 08:12:36;;;;;;;21.93;16.20;;;18.90;99.90;;;;;;5053832;28;20539;-80
2021/09/04 08:15:02;;;;;;;18.47;13.97;;;19.00;99.90;;;;;;5053782;28;20531;-80
2021/09/04 08:17:30;;;;;;;21.23;17.10;;;19.10;99.90;;;;;;5051440;28;20527;-80
2021/09/04 08:19:57;;;;;;;19.17;15.90;;;19.20;99.90;;;;;;5045087;28;20452;-84
2021/09/04 08:22:23;;;;;;;18.30;15.83;;;19.30;99.90;;;;;;5053853;28;20511;-83
2021/09/04 08:24:50;;;;;;;20.30;15.93;;;19.40;99.90;;;;;;5053618;28;20527;-83
2021/09/04 08:27:16;;;;;;;17.83;16.03;;;19.50;99.90;;;;;;5053553;28;21027;-83
2021/09/04 08:29:43;;;;;;;16.37;14.70;;;19.70;99.90;;;;;;5053699;28;20527;-83
2021/09/04 08:32:09;;;;;;;18.13;15.10;;;19.90;99.90;;;;;;5053658;28;20436;-83
2021/09/04 08:34:37;;;;;;;15.80;14.10;;;20.00;99.90;;;;;;5053364;28;20535;-83
2021/09/04 08:37:04;;;;;;;15.20;12.90;;;20.10;99.90;;;;;;5048676;28;21019;-83
2021/09/04 08:39:31;;;;;;;17.77;14.10;;;20.20;99.90;;;;;;5053526;28;20448;-83
2021/09/04 08:41:58;;;;;;;19.53;15.70;;;20.30;99.90;;;;;;5053455;28;20568;-83
2021/09/04 08:44:24;;;;;;;18.23;15.00;;;20.30;99.90;;;;;;5053524;28;20591;-83
2021/09/04 08:46:52;;;;;;;17.30;15.50;;;20.30;99.90;;;;;;5053349;28;20547;-83
2021/09/04 08:49:19;;;;;;;23.03;16.67;;;20.30;99.90;;;;;;5053614;28;20445;-83
2021/09/04 08:51:47;;;;;;;17.83;15.00;;;20.30;99.90;;;;;;5053076;28;20539;-81
2021/09/04 08:54:14;;;;;;;22.37;16.63;;;20.30;99.90;;;;;;5053022;28;20543;-83
2021/09/04 08:56:41;;;;;;;19.03;14.50;;;20.30;99.90;;;;;;5053010;28;20973;-82
2021/09/04 08:59:08;;;;;;;17.27;14.10;;;20.30;99.90;;;;;;5047575;28;20548;-82
2021/09/04 09:01:44;;;;;;;16.67;14.90;;;20.30;99.90;;;;;;5053114;28;20831;-83
2021/09/04 09:04:15;;;;;;;19.97;17.37;;;20.30;99.90;;;;;;5053084;28;20452;-84
2021/09/04 09:06:42;;;;;;;19.00;16.20;;;20.30;99.90;;;;;;5053188;28;20448;-84
2021/09/04 09:09:21;;;;;;;21.33;15.70;;;20.30;99.90;;;;;;5053341;28;20535;-83
2021/09/04 09:11:49;;;;;;;19.57;16.10;;;20.30;99.90;;;;;;5042615;28;20527;-83
2021/09/04 09:14:16;;;;;;;20.77;16.40;;;20.40;99.90;;;;;;5052987;28;20535;-83
2021/09/04 09:16:53;;;;;;;20.67;15.80;;;20.50;99.90;;;;;;5052972;28;20700;-84
2021/09/04 09:19:21;;;;;;;18.30;15.67;;;20.50;99.90;;;;;;5043707;28;20448;-81
2021/09/04 09:21:48;;;;;;;19.37;16.90;;;20.60;99.90;;;;;;5052296;28;20574;-81
2021/09/04 09:24:17;;;;;;;18.73;16.00;;;20.70;99.90;;;;;;5050954;28;20502;-81
2021/09/04 09:26:50;;;;;;;17.90;15.73;;;20.80;99.90;;;;;;5052321;28;20483;-81
2021/09/04 09:29:18;;;;;;;18.23;14.67;;;20.80;99.90;;;;;;5051772;28;20483;-81
2021/09/04 09:31:45;;;;;;;18.13;15.70;;;20.80;99.90;;;;;;5052944;28;20468;-81
2021/09/04 09:34:13;;;;;;;17.10;14.90;;;20.80;99.90;;;;;;5053167;28;20485;-81
2021/09/04 09:36:50;;;;;;;27.07;15.97;;;20.70;99.90;;;;;;5053437;28;20540;-80
2021/09/04 09:39:17;;;;;;;19.10;15.50;;;20.60;99.90;;;;;;5053221;28;20532;-81
2021/09/04 09:41:52;;;;;;;16.03;14.20;;;20.70;99.90;;;;;;5052802;28;20547;-81
2021/09/04 09:44:20;;;;;;;19.90;14.80;;;20.80;99.90;;;;;;5052922;28;20471;-81
2021/09/04 09:46:51;;;;;;;20.27;15.83;;;21.00;99.90;;;;;;5053204;28;20535;-80
2021/09/04 09:49:18;;;;;;;17.33;15.50;;;21.10;99.90;;;;;;5052547;28;20853;-81
2021/09/04 09:51:46;;;;;;;20.73;15.80;;;21.20;99.90;;;;;;5053098;28;20548;-81
2021/09/04 09:54:13;;;;;;;19.23;16.03;;;21.30;99.90;;;;;;5053100;28;20448;-81
2021/09/04 09:56:40;;;;;;;18.43;15.60;;;21.40;99.90;;;;;;5052650;28;20452;-81
2021/09/04 09:59:10;;;;;;;17.97;13.47;;;21.50;99.90;;;;;;5053048;28;20441;-81
2021/09/04 10:01:38;;;;;;;19.00;15.67;;;21.70;99.90;;;;;;5052942;28;20555;-81
2021/09/04 10:04:07;;;;;;;21.33;16.37;;;21.90;99.90;;;;;;5052655;28;20544;-81
2021/09/04 10:06:34;;;;;;;18.53;15.67;;;22.00;99.90;;;;;;5052857;28;20565;-81
2021/09/04 10:09:01;;;;;;;17.03;15.13;;;22.10;99.90;;;;;;5052816;28;20506;-81
2021/09/04 10:11:28;;;;;;;17.27;15.47;;;22.10;99.90;;;;;;5052401;28;20491;-81
2021/09/04 10:13:55;;;;;;;16.67;14.87;;;22.20;99.90;;;;;;5052604;28;20880;-81
2021/09/04 10:16:24;;;;;;;16.50;14.33;;;22.30;99.90;;;;;;5052609;28;21027;-82
2021/09/04 10:18:50;;;;;;;18.60;16.30;;;22.40;99.90;;;;;;5041926;28;20909;-81
2021/09/04 10:21:17;;;;;;;19.10;16.13;;;22.50;99.90;;;;;;5049646;28;20499;-81
2021/09/04 10:23:52;;;;;;;17.47;14.90;;;22.60;99.90;;;;;;5052455;28;20563;-81
2021/09/04 10:26:28;;;;;;;18.40;15.37;;;22.60;99.90;;;;;;5052352;28;20444;-81
2021/09/04 10:29:03;;;;;;;16.43;14.43;;;22.70;99.90;;;;;;5052522;28;20448;-81
2021/09/04 10:31:45;;;;;;;17.40;15.60;;;22.90;99.90;;;;;;5052644;28;20535;-82
2021/09/04 10:34:14;;;;;;;20.60;15.77;;;22.90;99.90;;;;;;5052080;28;20472;-81
2021/09/04 10:36:55;;;;;;;18.67;14.10;;;22.90;99.90;;;;;;5052607;28;20535;-81
2021/09/04 10:39:22;;;;;;;17.23;14.70;;;22.90;99.90;;;;;;5052312;28;20536;-81
2021/09/04 10:41:50;;;;;;;20.03;17.70;;;22.80;99.90;;;;;;5052121;28;20483;-81
2021/09/04 10:44:22;;;;;;;19.60;14.43;;;22.70;99.90;;;;;;5052530;28;20476;-81
2021/09/04 10:46:50;;;;;;;16.03;13.70;;;22.70;99.90;;;;;;5052395;28;20472;-81
2021/09/04 10:49:41;;;;;;;16.00;14.30;;;22.70;99.90;;;;;;5052213;28;20532;-81
2021/09/04 10:52:08;;;;;;;16.10;14.50;;;22.80;99.90;;;;;;5051991;28;21008;-81
2021/09/04 10:54:40;;;;;;;15.80;14.20;;;22.80;99.90;;;;;;5052334;28;20527;-81
2021/09/04 10:57:14;;;;;;;18.33;13.80;;;22.70;99.90;;;;;;5052209;28;20531;-81
2021/09/04 11:00:00;;;;;;;15.30;13.57;;;22.60;99.90;;;;;;5037539;28;20562;-81
2021/09/04 11:02:44;;;;;;;20.87;14.57;;;22.60;99.90;;;;;;5055467;28;20546;-81
2021/09/04 11:05:47;;;;;;;22.33;15.77;;;22.60;99.90;;;;;;5055758;28;20875;-81
2021/09/04 11:08:34;;;;;;;17.10;14.00;;;22.70;99.90;;;;;;5044307;28;20451;-81
2021/09/04 11:11:23;;;;;;;17.73;15.13;;;22.70;99.90;;;;;;5056095;28;20472;-81
2021/09/04 11:13:51;;;;;;;17.43;14.60;;;22.70;99.90;;;;;;5041402;28;20483;-81
2021/09/04 11:16:47;;;;;;;14.90;12.80;;;22.60;99.90;;;;;;5053557;28;20556;-81
2021/09/04 11:19:16;;;;;;;17.00;13.43;;;22.60;99.90;;;;;;5052832;28;20466;-81
2021/09/04 11:22:01;;;;;;;19.27;13.73;;;22.40;99.90;;;;;;5055467;28;20444;-81
2021/09/04 11:24:33;;;;;;;17.80;14.47;;;22.30;99.90;;;;;;5055487;28;20995;-81
2021/09/04 11:27:07;;;;;;;17.43;13.80;;;22.10;99.90;;;;;;5055855;28;20474;-81
2021/09/04 11:29:42;;;;;;;16.20;12.13;;;22.10;99.90;;;;;;5055647;28;20452;-81
2021/09/04 11:32:09;;;;;;;17.30;14.07;;;22.20;99.90;;;;;;5039594;28;20483;-81
2021/09/04 11:34:39;;;;;;;18.30;14.17;;;22.30;99.90;;;;;;5055142;28;20527;-82
2021/09/04 11:37:21;;;;;;;15.53;13.60;;;22.50;99.90;;;;;;5055363;28;20864;-81
2021/09/04 11:39:51;;;;;;;18.00;11.90;;;22.50;99.90;;;;;;5054897;28;20535;-81
2021/09/04 11:42:19;;;;;;;19.10;12.80;;;22.70;99.90;;;;;;5055324;28;20495;-81
2021/09/04 11:44:50;;;;;;;14.70;12.33;;;22.90;99.90;;;;;;5054663;28;20472;-81
2021/09/04 11:47:17;;;;;;;15.27;13.23;;;23.00;99.90;;;;;;5054727;28;20539;-81
2021/09/04 11:49:45;;;;;;;18.40;14.20;;;23.00;99.90;;;;;;5054779;28;20539;-81
2021/09/04 11:52:29;;;;;;;15.23;13.63;;;23.10;99.90;;;;;;5054926;28;20536;-81
2021/09/04 11:55:14;;;;;;;18.03;13.53;;;23.20;99.90;;;;;;5054603;28;20467;-81
2021/09/04 11:57:43;;;;;;;17.10;13.17;;;23.20;99.90;;;;;;5054675;28;20943;-81
2021/09/04 12:00:13;;;;;;;20.30;12.73;;;23.30;99.90;;;;;;5038789;28;20452;-81
2021/09/04 12:02:51;;;;;;;15.30;12.20;;;23.20;99.90;;;;;;5054639;28;21029;-82
2021/09/04 12:05:19;;;;;;;17.63;13.83;;;23.30;99.90;;;;;;5054579;28;20494;-82
2021/09/04 12:07:46;;;;;;;15.80;13.50;;;23.30;99.90;;;;;;5053840;28;20475;-81
2021/09/04 12:10:16;;;;;;;12.07;10.83;;;23.40;99.90;;;;;;5038466;28;20456;-82
2021/09/04 12:12:45;;;;;;;19.33;12.73;;;23.50;99.90;;;;;;5053362;28;20875;-81
2021/09/04 12:15:14;;;;;;;20.53;13.10;;;23.50;99.90;;;;;;5053378;28;20566;-81
2021/09/04 12:17:55;;;;;;;16.27;12.50;;;23.60;99.90;;;;;;5052735;28;20535;-82
2021/09/04 12:20:29;;;;;;;17.67;11.73;;;23.60;99.90;;;;;;5051924;28;20472;-82
2021/09/04 12:23:00;;;;;;;19.07;12.20;;;23.80;99.90;;;;;;5050848;28;20509;-81
2021/09/04 12:25:30;;;;;;;16.80;12.77;;;23.90;99.90;;;;;;5053464;28;20456;-82
2021/09/04 12:28:03;;;;;;;14.87;11.40;;;24.00;99.90;;;;;;5052222;28;20449;-82
2021/09/04 12:30:30;;;;;;;16.20;12.30;;;24.10;99.90;;;;;;5049907;28;20484;-81
2021/09/04 12:33:07;;;;;;;16.10;13.80;;;24.20;99.90;;;;;;5052744;28;20483;-80